• Join FlightAware (Why Join?)
  • Login
  • US Flag 
11:48PM EDT


 

Airport Tracker/Info


-or-


 

Live Flight TrackerFlight Track Log ✈ JBU673 ✈ 13-Apr-2013 ✈ KJFK - KLAX

Flight Track Log - Related Links

Times and Time Zones

All times are in EDT time to prevent confusion due to time zone crossing. See the JBU673 flight status page for this flight to view local times or setup timezone preferences in your user account.

Time Position Orientation Groundspeed Altitude Reporting Facility
EDT Latitude Longitude Course Direction KTS MPH feet Rate Location/Type
11:18AM 40.6360 -73.7890 323° Northwest 147 169 100  Level FlightAware
11:18AM 40.6480 -73.8170 299° West 175 201 900 1,800 Climbing FlightAware
11:19AM 40.6490 -73.8250 279° West 176 203 1,300 1,620 Climbing FlightAware
11:19AM 40.6370 -73.8580 244° Southwest 207 238 2,000 1,200 Climbing FlightAware
11:20AM 40.6140 -73.8860 223° Southwest 250 288 2,500 900 Climbing FlightAware
11:20AM 40.6040 -73.8880 189° South 266 306 2,600 1,980 Climbing FlightAware
11:20AM 40.5810 -73.8720 152° Southeast 276 318 3,500 2,880 Climbing FlightAware
11:20AM 40.5750 -73.8470 108° East 274 315 4,300 2,820 Climbing FlightAware
11:21AM 40.5790 -73.8090 82° East 279 321 5,400 2,700 Climbing FlightAware
11:21AM 40.5860 -73.7560 80° East 286 329 6,800 2,460 Climbing FlightAware
11:22AM 40.5920 -73.7110 80° East 297 342 7,700 2,280 Climbing FlightAware
11:22AM 40.6010 -73.6580 77° East 307 353 8,900 2,520 Climbing FlightAware
11:22AM 40.6050 -73.6391 74° East 310 357 9,300 2,280 Climbing FlightAware ADS-B
11:22AM 40.6075 -73.6316 66° East 311 358 9,400 1,320 Climbing FlightAware ADS-B
11:22AM 40.6105 -73.6248 60° Northeast 311 358 9,500 1,500 Climbing FlightAware ADS-B
11:23AM 40.6175 -73.6137 50° Northeast 310 357 9,700 1,500 Climbing FlightAware ADS-B
11:23AM 40.6219 -73.6085 42° Northeast 308 354 9,800 1,560 Climbing FlightAware ADS-B
11:23AM 40.6352 -73.5985 30° Northeast 304 350 10,100 1,800 Climbing FlightAware ADS-B
11:23AM 40.6472 -73.5944 15° North 294 338 10,400 2,580 Climbing FlightAware ADS-B
11:23AM 40.6571 -73.5924 North 292 336 10,800 1,560 Climbing FlightAware ADS-B
11:24AM 40.7090 -73.5850 North 319 367 11,600 1,200 Climbing FlightAware
11:24AM 40.7360 -73.5814 North 338 389 11,900 900 Climbing FlightAware ADS-B
11:25AM 40.8052 -73.5730 North 371 427 12,500 1,020 Climbing FlightAware ADS-B
11:25AM 40.8600 -73.5765 357° North 381 438 13,200 1,440 Climbing FlightAware ADS-B
11:25AM 40.8768 -73.5839 342° North 371 427 13,500 1,980 Climbing FlightAware ADS-B
11:26AM 40.8843 -73.5892 332° Northwest 364 419 13,700 1,800 Climbing FlightAware ADS-B
11:26AM 40.8904 -73.5948 325° Northwest 361 415 13,800 1,980 Climbing FlightAware ADS-B
11:26AM 40.9275 -73.6425 316° Northwest 355 409 14,900 1,920 Climbing FlightAware ADS-B
11:27AM 40.9630 -73.6895 315° West 360 414 15,800 1,800 Climbing FlightAware ADS-B
11:27AM 40.9965 -73.7338 315° West 361 415 16,700 1,680 Climbing FlightAware ADS-B
11:27AM 41.0068 -73.7509 309° West 357 411 16,900 900 Climbing FlightAware ADS-B
11:27AM 41.0138 -73.7675 299° West 349 402 17,000 300 Climbing FlightAware ADS-B
11:28AM 41.0190 -73.7859 291° West 344 396 17,000  Level FlightAware ADS-B
11:28AM 41.0236 -73.8163 281° West 339 390 17,000  Level FlightAware ADS-B
11:28AM 41.0280 -73.8505 280° West 340 391 17,000  Level FlightAware ADS-B
11:28AM 41.0317 -73.8779 280° West 340 391 17,000  Level FlightAware ADS-B
11:29AM 41.0364 -73.9135 280° West 340 391 17,000  Level FlightAware ADS-B
11:29AM 41.0405 -73.9439 280° West 341 392 17,000  Level FlightAware ADS-B
11:29AM 41.0447 -73.9766 280° West 339 390 17,000  Level FlightAware ADS-B
11:29AM 41.0486 -74.0062 280° West 341 392 17,000  Level FlightAware ADS-B
11:30AM 41.0532 -74.0406 280° West 344 396 17,000  Level FlightAware ADS-B
11:30AM 41.0569 -74.0694 280° West 342 394 17,000  Level FlightAware ADS-B
11:30AM 41.0613 -74.1038 280° West 341 392 17,000 720 Level FlightAware ADS-B
11:30AM 41.0653 -74.1345 280° West 342 394 17,400 1,740 Climbing FlightAware ADS-B
11:31AM 41.0695 -74.1675 280° West 343 395 17,900 1,680 Climbing FlightAware ADS-B
11:31AM 41.0736 -74.1997 280° West 345 397 18,300 1,560 Climbing FlightAware ADS-B
11:31AM 41.0784 -74.2375 280° West 344 396 18,800 1,740 Climbing FlightAware ADS-B
11:31AM 41.0819 -74.2643 280° West 346 398 19,200 1,560 Climbing FlightAware ADS-B
11:32AM 41.0906 -74.3320 280° West 351 404 20,000 1,500 Climbing FlightAware ADS-B
11:33AM 41.0989 -74.3975 280° West 353 406 20,800 1,380 Climbing FlightAware ADS-B
11:33AM 41.1076 -74.4666 280° West 359 413 21,500 1,140 Climbing FlightAware ADS-B
11:34AM 41.1163 -74.5355 280° West 367 422 22,000 1,320 Climbing FlightAware ADS-B
11:34AM 41.1247 -74.6018 280° West 363 418 22,900 1,440 Climbing FlightAware ADS-B
11:34AM 41.1310 -74.6420 282° West 368 423 23,200 1,080 Climbing FlightAware ADS-B
11:35AM 41.1373 -74.6719 286° West 372 428 23,500 1,440 Climbing FlightAware ADS-B
11:35AM 41.1487 -74.7140 290° West 374 430 24,000 1,620 Climbing FlightAware ADS-B
11:35AM 41.1634 -74.7570 294° West 374 430 24,600 1,680 Climbing FlightAware ADS-B
11:36AM 41.1897 -74.8181 300° West 370 426 25,500 1,440 Climbing FlightAware ADS-B
11:36AM 41.2160 -74.8779 300° West 370 426 26,100 840 Climbing FlightAware ADS-B
11:37AM 41.2423 -74.9390 300° West 377 434 26,400 660 Climbing FlightAware ADS-B
11:37AM 41.2740 -75.0122 300° West 382 440 26,900 840 Climbing FlightAware ADS-B
11:38AM 41.3049 -75.0835 300° West 385 443 27,400 780 Climbing FlightAware ADS-B
11:38AM 41.3316 -75.1454 300° West 388 447 27,800 780 Climbing FlightAware ADS-B
11:39AM 41.3589 -75.2092 300° West 390 449 28,200 900 Climbing FlightAware ADS-B
11:40AM 41.3881 -75.2772 300° West 388 447 28,800 1,020 Climbing FlightAware ADS-B
11:40AM 41.4154 -75.3408 300° West 386 444 29,300 1,080 Climbing FlightAware ADS-B
11:41AM 41.4418 -75.4026 300° West 382 440 29,900 1,080 Climbing FlightAware ADS-B
11:41AM 41.4674 -75.4634 299° West 379 436 30,400 960 Climbing FlightAware ADS-B
11:41AM 41.4770 -75.4892 296° West 374 430 30,600 840 Climbing FlightAware ADS-B
11:42AM 41.4989 -75.5620 292° West 368 423 31,100 900 Climbing FlightAware ADS-B
11:42AM 41.5171 -75.6253 291° West 365 420 31,600 840 Climbing FlightAware ADS-B
11:43AM 41.5356 -75.6902 291° West 365 420 32,000 840 Climbing FlightAware ADS-B
11:43AM 41.5537 -75.7531 291° West 362 417 32,500 720 Climbing FlightAware ADS-B
11:44AM 41.5736 -75.8236 291° West 362 417 32,800 480 Climbing FlightAware ADS-B
11:44AM 41.5938 -75.8948 291° West 363 418 33,100 540 Climbing FlightAware ADS-B
11:45AM 41.6129 -75.9617 291° West 363 418 33,400 660 Climbing FlightAware ADS-B
11:46AM 41.6310 -76.0251 291° West 361 415 33,800 540 Climbing FlightAware ADS-B
11:46AM 41.6488 -76.0879 291° West 357 411 34,000 180 Climbing FlightAware ADS-B
11:47AM 41.6672 -76.1533 291° West 358 412 34,000  Level FlightAware ADS-B
11:47AM 41.6886 -76.2303 290° West 357 411 34,000  Level FlightAware ADS-B
11:48AM 41.7064 -76.2946 290° West 360 414 34,000  Level FlightAware ADS-B
11:48AM 41.7260 -76.3645 291° West 362 417 34,000  Level FlightAware ADS-B
11:49AM 41.7457 -76.4351 291° West 362 417 34,000  Level FlightAware ADS-B
11:49AM 41.7637 -76.4997 291° West 364 419 34,000  Level FlightAware ADS-B
11:50AM 41.7859 -76.5803 290° West 366 421 34,000  Level FlightAware ADS-B
11:51AM 41.8170 -76.6910 291° West 367 422 34,000  Level FlightAware
11:52AM 41.8400 -76.7740 290° West 369 425 34,000  Level FlightAware
11:52AM 41.8630 -76.8600 290° West 370 426 34,000  Level FlightAware
11:53AM 41.8890 -76.9550 290° West 371 427 34,000  Level FlightAware
11:54AM 41.9130 -77.0450 290° West 371 427 34,000  Level FlightAware
11:54AM 41.9370 -77.1330 290° West 372 428 34,000  Level FlightAware
11:55AM 41.9640 -77.2310 290° West 373 429 34,000  Level FlightAware
11:56AM 41.9860 -77.3160 289° West 373 429 34,000  Level FlightAware
11:56AM 42.0060 -77.3900 290° West 372 428 34,000  Level FlightAware
11:57AM 42.0300 -77.4800 290° West 369 425 34,000  Level FlightAware
11:58AM 42.0500 -77.5560 290° West 367 422 34,000  Level FlightAware
11:58AM 42.0730 -77.6410 290° West 366 421 34,000  Level FlightAware
11:59AM 42.0980 -77.7350 290° West 369 425 34,000  Level FlightAware
12:00PM 42.1210 -77.8240 289° West 370 426 34,000  Level FlightAware
12:00PM 42.1470 -77.9230 290° West 372 428 34,000  Level FlightAware
12:01PM 42.1700 -78.0110 289° West 374 430 34,000  Level FlightAware
12:02PM 42.1920 -78.0940 290° West 376 433 34,000  Level FlightAware
12:03PM 42.2180 -78.1970 289° West 377 434 34,000  Level FlightAware
12:03PM 42.2410 -78.2870 289° West 377 434 34,000  Level FlightAware
12:04PM 42.2640 -78.3760 289° West 378 435 34,000  Level FlightAware
12:05PM 42.2900 -78.4750 290° West 381 438 34,000  Level FlightAware
12:05PM 42.3130 -78.5660 289° West 383 441 34,000  Level FlightAware
12:06PM 42.3390 -78.6690 289° West 385 443 34,000  Level FlightAware
12:07PM 42.3620 -78.7580 289° West 387 445 34,000  Level FlightAware
12:07PM 42.3860 -78.8520 289° West 387 445 34,000  Level FlightAware
12:08PM 42.4110 -78.9550 288° West 387 445 34,000  Level FlightAware
12:09PM 42.4340 -79.0460 289° West 388 447 34,000  Level FlightAware
12:09PM 42.4570 -79.1390 289° West 388 447 34,000  Level FlightAware
12:10PM 42.4820 -79.2430 288° West 385 443 34,000  Level FlightAware
12:11PM 42.4940 -79.3360 280° West 378 435 34,000  Level FlightAware
12:12PM 42.4990 -79.4420 274° West 377 434 34,000  Level FlightAware
12:12PM 42.5040 -79.5360 274° West 377 434 34,000  Level FlightAware
12:13PM 42.5080 -79.6300 273° West 378 435 34,000  Level FlightAware
12:14PM 42.5130 -79.7380 274° West 381 438 34,000  Level FlightAware
12:14PM 42.5180 -79.8320 274° West 381 438 34,000  Level FlightAware
12:15PM 42.5230 -79.9400 274° West 382 440 34,000  Level FlightAware
12:16PM 42.5270 -80.0330 273° West 382 440 34,000  Level FlightAware
12:16PM 42.5310 -80.1300 273° West 381 438 34,000  Level FlightAware
12:17PM 42.5350 -80.2390 273° West 382 440 34,000  Level FlightAware
12:18PM 42.5390 -80.3310 273° West 383 441 34,000  Level FlightAware
12:19PM 42.5440 -80.4420 274° West 384 442 34,000  Level FlightAware
12:19PM 42.5480 -80.5360 273° West 385 443 34,000  Level FlightAware
12:20PM 42.5510 -80.6350 272° West 385 443 34,000  Level FlightAware
12:21PM 42.5560 -80.7430 274° West 384 442 34,000  Level FlightAware
12:21PM 42.5590 -80.8370 273° West 382 440 34,000  Level FlightAware
12:22PM 42.5630 -80.9330 273° West 382 440 34,000  Level FlightAware
12:23PM 42.5660 -81.0410 272° West 385 443 34,000  Level FlightAware
12:24PM 42.5700 -81.1510 273° West 391 450 34,000  Level FlightAware
12:24PM 42.5730 -81.2490 272° West 398 458 34,000  Level FlightAware
12:25PM 42.5770 -81.3440 273° West 403 464 34,000 60 Level FlightAware
12:26PM 42.5840 -81.4510 275° West 412 474 34,100 60 Climbing FlightAware
12:26PM 42.5990 -81.5410 283° West 415 478 34,100  Level FlightAware
12:27PM 42.6270 -81.6950 284° West 406 467 34,100 -60 Level FlightAware
12:28PM 42.6460 -81.8060 283° West 399 459 34,000 -120 Descending FlightAware
12:29PM 42.6640 -81.9100 283° West 395 455 34,000  Level FlightAware
12:29PM 42.6810 -82.0060 284° West 395 455 34,000  Level FlightAware
12:30PM 42.6980 -82.1060 283° West 399 459 34,000  Level FlightAware
12:31PM 42.7160 -82.2080 284° West 404 465 34,000  Level FlightAware
12:31PM 42.7350 -82.3230 283° West 407 468 34,000  Level FlightAware
12:32PM 42.7490 -82.4060 283° West 409 471 34,000  Level FlightAware
12:33PM 42.7700 -82.5280 283° West 409 471 34,000 60 Level FlightAware
12:34PM 42.7870 -82.6330 282° West 408 470 34,100 60 Climbing FlightAware
12:34PM 42.8030 -82.7270 283° West 405 466 34,100 -120 Level FlightAware
12:35PM 42.8200 -82.8290 283° West 403 464 34,000 -120 Descending FlightAware
12:36PM 42.8380 -82.9400 283° West 396 456 34,000  Level FlightAware
12:36PM 42.8530 -83.0330 282° West 393 452 34,000  Level FlightAware
12:37PM 42.8680 -83.1220 283° West 389 448 34,000  Level FlightAware
12:38PM 42.8870 -83.2410 282° West 394 453 34,000  Level FlightAware
12:38PM 42.9030 -83.3410 282° West 399 459 34,000  Level FlightAware
12:39PM 42.9230 -83.4710 282° West 405 466 34,000  Level FlightAware
12:40PM 42.9420 -83.5890 282° West 410 472 34,000 60 Level FlightAware
12:41PM 42.9600 -83.7020 282° West 409 471 34,100  Climbing FlightAware
12:41PM 42.9710 -83.7850 280° West 408 470 34,000 -120 Descending FlightAware
12:42PM 42.9860 -83.9380 278° West 409 471 34,000  Level FlightAware
12:43PM 42.9970 -84.0390 279° West 410 472 34,000  Level FlightAware
12:44PM 43.0070 -84.1430 278° West 410 472 34,000  Level FlightAware
12:44PM 43.0180 -84.2530 278° West 411 473 34,000  Level FlightAware
12:45PM 43.0290 -84.3620 278° West 413 475 34,000  Level FlightAware
12:46PM 43.0400 -84.4770 277° West 415 478 34,000  Level FlightAware
12:46PM 43.0500 -84.5800 278° West 416 479 34,000  Level FlightAware
12:47PM 43.0600 -84.6860 277° West 417 480 34,000  Level FlightAware
12:48PM 43.0710 -84.7990 278° West 416 479 34,000  Level FlightAware
12:48PM 43.0810 -84.9080 277° West 414 476 34,000  Level FlightAware
12:49PM 43.0910 -85.0230 277° West 414 476 34,000  Level FlightAware
12:50PM 43.1010 -85.1280 277° West 415 478 34,000  Level FlightAware
12:51PM 43.1100 -85.2310 277° West 417 480 34,000  Level FlightAware
12:51PM 43.1200 -85.3470 277° West 417 480 34,000  Level FlightAware
12:52PM 43.1300 -85.4550 277° West 416 479 34,000  Level FlightAware
12:53PM 43.1400 -85.5700 277° West 414 476 34,000  Level FlightAware
12:53PM 43.1490 -85.6720 277° West 414 476 34,000  Level FlightAware
12:54PM 43.1580 -85.7780 277° West 414 476 34,000  Level FlightAware
12:55PM 43.1680 -85.8930 277° West 415 478 34,000  Level FlightAware
12:55PM 43.1770 -86.0020 276° West 416 479 34,000  Level FlightAware
12:56PM 43.1850 -86.1070 276° West 418 481 34,000  Level FlightAware
12:57PM 43.1930 -86.2020 277° West 420 483 34,000  Level FlightAware
12:57PM 43.1980 -86.3000 274° West 420 483 34,000  Level FlightAware
12:58PM 43.1940 -86.4220 267° West 420 483 34,000  Level FlightAware
12:59PM 43.1900 -86.5300 267° West 418 481 34,000  Level FlightAware
01:00PM 43.1860 -86.6680 268° West 415 478 34,000  Level FlightAware
01:00PM 43.1830 -86.7470 267° West 415 478 34,000  Level FlightAware
01:01PM 43.1780 -86.8720 267° West 414 476 34,000  Level FlightAware
01:02PM 43.1740 -86.9920 267° West 415 478 34,000  Level FlightAware
01:02PM 43.1690 -87.1020 266° West 417 480 34,000  Level FlightAware
01:03PM 43.1650 -87.2170 267° West 416 479 34,000  Level FlightAware
01:04PM 43.1600 -87.3270 266° West 415 478 34,000  Level FlightAware
01:04PM 43.1570 -87.4130 267° West 414 476 34,000  Level FlightAware
01:05PM 43.1510 -87.5440 266° West 413 475 34,000  Level FlightAware
01:06PM 43.1470 -87.6490 267° West 413 475 34,000  Level FlightAware
01:07PM 43.1420 -87.7460 266° West 414 476 34,000  Level FlightAware
01:07PM 43.1370 -87.8720 267° West 413 475 34,000  Level FlightAware
01:08PM 43.1320 -87.9810 266° West 412 474 34,000  Level FlightAware
01:09PM 43.1270 -88.0820 266° West 412 474 34,000  Level FlightAware
01:09PM 43.1210 -88.2000 266° West 413 475 34,000  Level FlightAware
01:10PM 43.1140 -88.3130 265° West 413 475 34,000  Level FlightAware
01:11PM 43.1010 -88.4240 261° West 415 478 34,000  Level FlightAware
01:12PM 43.0890 -88.5190 260° West 417 480 34,000  Level FlightAware
01:12PM 43.0750 -88.6390 261° West 416 479 34,000  Level FlightAware
01:13PM 43.0630 -88.7400 261° West 414 476 34,000  Level FlightAware
01:14PM 43.0500 -88.8430 260° West 411 473 34,000  Level FlightAware
01:14PM 43.0380 -88.9430 261° West 408 470 34,000  Level FlightAware
01:15PM 43.0230 -89.0650 260° West 406 467 34,000  Level FlightAware
01:16PM 43.0110 -89.1600 260° West 406 467 34,000  Level FlightAware
01:16PM 42.9960 -89.2810 260° West 407 468 34,000  Level FlightAware
01:17PM 42.9830 -89.3770 260° West 408 470 34,000  Level FlightAware
01:18PM 42.9670 -89.5050 260° West 407 468 34,000  Level FlightAware
01:19PM 42.9550 -89.5990 260° West 408 470 34,000  Level FlightAware
01:19PM 42.9410 -89.7070 260° West 409 471 34,000  Level FlightAware
01:20PM 42.9260 -89.8190 260° West 410 472 34,000  Level FlightAware
01:21PM 42.9140 -89.9130 260° West 410 472 34,000  Level FlightAware
01:21PM 42.8980 -90.0300 259° West 409 471 34,000  Level FlightAware
01:22PM 42.8880 -90.1080 260° West 409 471 34,000  Level FlightAware
01:23PM 42.8710 -90.2340 260° West 410 472 34,000  Level FlightAware
01:24PM 42.8550 -90.3510 259° West 410 472 34,000  Level FlightAware
01:24PM 42.8440 -90.4370 260° West 411 473 34,000 60 Level FlightAware
01:25PM 42.8270 -90.5530 259° West 409 471 34,100  Climbing FlightAware
01:26PM 42.8120 -90.6630 260° West 407 468 34,000 -120 Descending FlightAware
01:26PM 42.7970 -90.7700 259° West 407 468 34,000  Level FlightAware
01:27PM 42.7810 -90.8850 259° West 407 468 34,000  Level FlightAware
01:28PM 42.7660 -90.9870 259° West 409 471 34,000  Level FlightAware
01:28PM 42.7520 -91.0890 259° West 410 472 34,000 60 Level FlightAware
01:29PM 42.7360 -91.2010 259° West 407 468 34,100  Climbing FlightAware
01:30PM 42.7220 -91.3000 259° West 405 466 34,000 -120 Descending FlightAware
01:31PM 42.7070 -91.4040 259° West 402 463 34,000  Level FlightAware
01:31PM 42.6930 -91.4960 258° West 402 463 34,000  Level FlightAware
01:32PM 42.6790 -91.5900 259° West 401 461 34,000  Level FlightAware
01:33PM 42.6630 -91.7030 259° West 403 464 34,000  Level FlightAware
01:33PM 42.6470 -91.8070 258° West 402 463 34,000  Level FlightAware
01:34PM 42.6320 -91.9070 259° West 403 464 34,000  Level FlightAware
01:35PM 42.6150 -92.0220 259° West 405 466 34,000  Level FlightAware
01:35PM 42.5990 -92.1250 258° West 406 467 34,000 60 Level FlightAware
01:36PM 42.5860 -92.2080 258° West 406 467 34,100  Climbing FlightAware
01:37PM 42.5660 -92.3350 258° West 405 466 34,000 -120 Descending FlightAware
01:37PM 42.5450 -92.4280 253° West 409 471 34,000  Level FlightAware
01:38PM 42.5060 -92.5410 245° Southwest 409 471 34,000  Level FlightAware
01:39PM 42.4730 -92.6370 245° Southwest 409 471 34,000  Level FlightAware
01:40PM 42.4420 -92.7250 245° Southwest 409 471 34,000  Level FlightAware
01:40PM 42.4010 -92.8440 245° Southwest 409 471 34,000  Level FlightAware
01:41PM 42.3670 -92.9380 244° Southwest 407 468 34,000  Level FlightAware
01:42PM 42.3280 -93.0470 244° Southwest 405 466 34,000  Level FlightAware
01:43PM 42.2960 -93.1390 245° Southwest 405 466 34,000  Level FlightAware
01:43PM 42.2610 -93.2370 244° Southwest 405 466 34,000  Level FlightAware
01:44PM 42.2290 -93.3240 244° Southwest 407 468 34,000  Level FlightAware
01:45PM 42.1950 -93.4190 244° Southwest 410 472 34,000 60 Level FlightAware
01:45PM 42.1600 -93.5180 245° Southwest 409 471 34,100 60 Climbing FlightAware
01:46PM 42.1250 -93.6100 243° Southwest 408 470 34,100  Level FlightAware
01:47PM 42.0960 -93.6870 243° Southwest 408 470 34,100  Level FlightAware
01:47PM 42.0670 -93.7640 243° Southwest 408 470 34,100  Level FlightAware
01:48PM 42.0300 -93.8610 243° Southwest 408 470 34,100  Level FlightAware
01:49PM 42.0010 -93.9380 243° Southwest 408 470 34,100  Level FlightAware
01:50PM 41.9720 -94.0150 243° Southwest 408 470 34,100  Level FlightAware
01:50PM 41.9430 -94.0910 243° Southwest 408 470 34,100  Level FlightAware
01:51PM 41.9140 -94.1680 243° Southwest 408 470 34,100  Level FlightAware
01:52PM 41.8770 -94.2640 243° Southwest 408 470 34,100  Level FlightAware
01:52PM 41.8480 -94.3410 243° Southwest 408 470 34,100  Level FlightAware
01:53PM 41.8190 -94.4180 243° Southwest 408 470 34,100  Level FlightAware
01:54PM 41.7900 -94.4950 243° Southwest 408 470 34,100  Level FlightAware
01:55PM 41.7530 -94.5900 242° Southwest 408 470 34,100  Level FlightAware
01:55PM 41.7240 -94.6670 243° Southwest 408 470 34,100 -120 Level FlightAware
01:56PM 41.6547 -94.8781 243° Southwest 395 455 34,000 -120 Descending Minneapolis Center
01:57PM 41.6044 -95.0100 243° Southwest 400 460 34,000  Level Minneapolis Center
01:58PM 41.5536 -95.1433 243° Southwest 404 465 34,000  Level Minneapolis Center
01:59PM 41.5022 -95.2772 243° Southwest 406 467 34,000  Level Minneapolis Center
02:00PM 41.4506 -95.4108 243° Southwest 405 466 34,000  Level Minneapolis Center
02:01PM 41.3989 -95.5442 243° Southwest 405 466 34,000  Level Minneapolis Center
02:02PM 41.3269 -95.7283 243° Southwest 394 453 34,000  Level Minneapolis Center
02:03PM 41.2772 -95.8567 243° Southwest 391 450 34,000  Level Minneapolis Center
02:04PM 41.2261 -95.9861 242° Southwest 395 455 34,000  Level Minneapolis Center
02:05PM 41.1733 -96.1189 242° Southwest 409 471 34,000  Level Minneapolis Center
02:06PM 41.1203 -96.2528 242° Southwest 410 472 34,000  Level Minneapolis Center
02:07PM 41.0633 -96.3950 242° Southwest 408 470 34,000  Level Minneapolis Center
02:08PM 41.0103 -96.5278 242° Southwest 408 470 34,000  Level Minneapolis Center
02:09PM 40.9567 -96.6608 242° Southwest 411 473 34,000  Level Minneapolis Center
02:10PM 40.9081 -96.7972 245° Southwest 407 468 34,000  Level Minneapolis Center
02:11PM 40.8686 -96.9369 250° West 406 467 34,000  Level Minneapolis Center
02:12PM 40.8289 -97.0767 249° West 405 466 34,000  Level Minneapolis Center
02:13PM 40.7806 -97.2450 249° West 403 464 34,000  Level Minneapolis Center
02:14PM 40.7436 -97.3728 249° West 402 463 34,000  Level Minneapolis Center
02:15PM 40.7033 -97.5114 249° West 405 466 34,000  Level Minneapolis Center
02:16PM 40.6628 -97.6514 249° West 409 471 34,000  Level Minneapolis Center
02:17PM 40.6214 -97.7919 249° West 410 472 34,000  Level Minneapolis Center
02:18PM 40.5803 -97.9322 249° West 409 471 34,000  Level Minneapolis Center
02:19PM 40.5306 -98.1000 249° West 409 471 34,000  Level Minneapolis Center
02:20PM 40.4886 -98.2403 249° West 411 473 34,000  Level Minneapolis Center
02:22PM 40.4464 -98.3806 248° West 411 473 34,000  Level Minneapolis Center
02:23PM 40.4044 -98.5197 248° West 407 468 34,000  Level Minneapolis Center
02:24PM 40.3625 -98.6581 248° West 406 467 34,000  Level Minneapolis Center
02:25PM 40.3206 -98.7958 248° West 406 467 34,000  Level Minneapolis Center
02:25PM 40.2881 -98.9047 249° West 405 466 34,000  Level Denver Center
02:26PM 40.2444 -99.0417 247° West 405 466 34,000  Level Denver Center
02:27PM 40.2022 -99.1808 248° West 410 472 34,000  Level Denver Center
02:28PM 40.1589 -99.3197 248° West 411 473 34,000  Level Denver Center
02:29PM 40.1167 -99.4586 248° West 411 473 34,000  Level Denver Center
02:31PM 40.0722 -99.5958 247° West 410 472 34,000  Level Denver Center
02:32PM 40.0211 -99.7619 248° West 409 471 34,000  Level Denver Center
02:33PM 39.9761 -99.8989 247° West 411 473 34,000  Level Denver Center
02:34PM 39.9322 -100.0358 247° West 408 470 34,000  Level Denver Center
02:35PM 39.8897 -100.1728 248° West 409 471 34,000  Level Denver Center
02:36PM 39.8481 -100.3003 247° West 405 466 34,000  Level Denver Center
02:37PM 39.7983 -100.4528 247° West 408 470 34,000  Level Denver Center
02:43PM 39.5139 -101.3180 247° West 424 488 34,100  Climbing FlightAware ADS-B
02:43PM 39.4904 -101.3880 247° West 422 486 34,100 -120 Level FlightAware ADS-B
02:44PM 39.4666 -101.4590 247° West 421 484 34,000 -120 Descending FlightAware ADS-B
02:44PM 39.4427 -101.5300 246° West 423 487 34,000  Level FlightAware ADS-B
02:45PM 39.4188 -101.6010 246° West 426 490 34,000  Level FlightAware ADS-B
02:45PM 39.3948 -101.6720 246° West 427 491 34,000  Level FlightAware ADS-B
02:46PM 39.3727 -101.7360 246° West 428 493 34,000  Level FlightAware ADS-B
02:46PM 39.3458 -101.8050 243° Southwest 429 494 34,000  Level FlightAware ADS-B
02:47PM 39.3165 -101.8790 243° Southwest 428 493 34,000  Level FlightAware ADS-B
02:47PM 39.2899 -101.9480 244° Southwest 429 494 34,000  Level FlightAware ADS-B
02:48PM 39.2632 -102.0170 243° Southwest 431 496 34,000  Level FlightAware ADS-B
02:48PM 39.2325 -102.0970 244° Southwest 431 496 34,000  Level FlightAware ADS-B
02:49PM 39.2057 -102.1660 243° Southwest 432 497 34,000  Level FlightAware ADS-B
02:50PM 39.1789 -102.2350 243° Southwest 432 497 34,000  Level FlightAware ADS-B
02:50PM 39.1518 -102.3040 243° Southwest 433 498 34,000  Level FlightAware ADS-B
02:51PM 39.1246 -102.3740 243° Southwest 435 501 34,000  Level FlightAware ADS-B
02:51PM 39.0973 -102.4440 243° Southwest 437 503 34,000  Level FlightAware ADS-B
02:52PM 39.0688 -102.5170 243° Southwest 439 505 34,000  Level FlightAware ADS-B
02:52PM 39.0407 -102.5880 243° Southwest 440 506 34,000 60 Level FlightAware ADS-B
02:53PM 39.0129 -102.6590 243° Southwest 439 505 34,100  Climbing FlightAware ADS-B
02:53PM 38.9852 -102.7290 243° Southwest 440 506 34,000 -120 Descending FlightAware ADS-B
02:54PM 38.9574 -102.7990 243° Southwest 440 506 34,000  Level FlightAware ADS-B
02:54PM 38.9294 -102.8700 243° Southwest 439 505 34,000  Level FlightAware ADS-B
02:55PM 38.9016 -102.9400 243° Southwest 440 506 34,000 60 Level FlightAware ADS-B
02:55PM 38.8740 -103.0090 243° Southwest 437 503 34,100 60 Climbing FlightAware ADS-B
02:56PM 38.8464 -103.0790 243° Southwest 435 501 34,100 -120 Level FlightAware ADS-B
02:56PM 38.8187 -103.1470 242° Southwest 432 497 34,000 -120 Descending FlightAware ADS-B
02:57PM 38.7905 -103.2180 243° Southwest 433 498 34,000  Level FlightAware ADS-B
02:57PM 38.7624 -103.2870 242° Southwest 433 498 34,000  Level FlightAware ADS-B
02:58PM 38.7350 -103.3550 243° Southwest 421 484 34,000  Level FlightAware ADS-B
02:58PM 38.7080 -103.4220 243° Southwest 426 490 34,000  Level FlightAware ADS-B
02:59PM 38.6812 -103.4890 243° Southwest 420 483 34,000  Level FlightAware ADS-B
02:59PM 38.6538 -103.5560 242° Southwest 426 490 34,000  Level FlightAware ADS-B
03:00PM 38.6270 -103.6220 243° Southwest 424 488 34,000  Level FlightAware ADS-B
03:00PM 38.5997 -103.6890 242° Southwest 426 490 34,000  Level FlightAware ADS-B
03:01PM 38.5727 -103.7560 243° Southwest 425 489 34,000  Level FlightAware ADS-B
03:01PM 38.5453 -103.8230 242° Southwest 419 482 34,000  Level FlightAware ADS-B
03:02PM 38.5183 -103.8880 242° Southwest 415 478 34,000  Level FlightAware ADS-B
03:02PM 38.4913 -103.9540 242° Southwest 413 475 34,000  Level FlightAware ADS-B
03:03PM 38.4643 -104.0200 242° Southwest 411 473 34,000  Level FlightAware ADS-B
03:03PM 38.4377 -104.0840 242° Southwest 409 471 34,000  Level FlightAware ADS-B
03:04PM 38.4107 -104.1490 242° Southwest 410 472 34,000  Level FlightAware ADS-B
03:04PM 38.3830 -104.2160 242° Southwest 411 473 34,000  Level FlightAware ADS-B
03:05PM 38.3559 -104.2810 242° Southwest 414 476 34,000  Level FlightAware ADS-B
03:05PM 38.3285 -104.3470 242° Southwest 418 481 34,000  Level FlightAware ADS-B
03:06PM 38.3008 -104.4140 242° Southwest 420 483 34,000 60 Level FlightAware ADS-B
03:06PM 38.2602 -104.5140 243° Southwest 423 487 34,100 60 Climbing FlightAware ADS-B
03:07PM 38.2220 -104.6110 243° Southwest 422 486 34,100  Level FlightAware ADS-B
03:08PM 38.1911 -104.6880 243° Southwest 423 487 34,100 -120 Level FlightAware ADS-B
03:08PM 38.1618 -104.7610 243° Southwest 421 484 34,000  Descending FlightAware ADS-B
03:09PM 38.1351 -104.8280 243° Southwest 422 486 34,100  Climbing FlightAware ADS-B
03:09PM 38.1084 -104.8940 243° Southwest 421 484 34,000 -120 Descending FlightAware ADS-B
03:10PM 38.0853 -104.9510 243° Southwest 415 478 34,000  Level FlightAware ADS-B
03:10PM 38.0589 -105.0160 243° Southwest 414 476 34,000  Level FlightAware ADS-B
03:11PM 38.0325 -105.0810 243° Southwest 415 478 34,000  Level FlightAware ADS-B
03:11PM 38.0058 -105.1470 243° Southwest 417 480 34,000  Level FlightAware ADS-B
03:12PM 37.9790 -105.2130 243° Southwest 419 482 34,000  Level FlightAware ADS-B
03:12PM 37.9521 -105.2790 243° Southwest 427 491 34,000  Level FlightAware ADS-B
03:13PM 37.9243 -105.3470 243° Southwest 421 484 34,000  Level FlightAware ADS-B
03:13PM 37.8966 -105.4150 243° Southwest 428 493 34,000  Level FlightAware ADS-B
03:14PM 37.8663 -105.4890 243° Southwest 423 487 34,000  Level FlightAware ADS-B
03:14PM 37.8381 -105.5570 242° Southwest 426 490 34,000  Level FlightAware ADS-B
03:15PM 37.8100 -105.6260 243° Southwest 438 504 34,000  Level FlightAware ADS-B
03:15PM 37.7817 -105.6940 242° Southwest 432 497 34,000  Level FlightAware ADS-B
03:16PM 37.7517 -105.7660 242° Southwest 430 495 34,000  Level FlightAware ADS-B
03:16PM 37.7243 -105.8330 243° Southwest 423 487 34,000  Level FlightAware ADS-B
03:17PM 37.6965 -105.8990 242° Southwest 425 489 34,000 60 Level FlightAware ADS-B
03:18PM 37.6472 -106.0133 242° Southwest 424 488 34,100  Climbing Denver Center
03:19PM 37.5956 -106.1375 242° Southwest 419 482 34,100 -60 Level Denver Center
03:20PM 37.5383 -106.2717 242° Southwest 417 480 34,000 -60 Descending Denver Center
03:21PM 37.4875 -106.3958 243° Southwest 417 480 34,000  Level Denver Center
03:22PM 37.4386 -106.5453 248° West 414 476 34,000  Level Denver Center
03:23PM 37.3986 -106.6750 249° West 415 478 34,000  Level Denver Center
03:24PM 37.3519 -106.8272 249° West 419 482 34,000  Level Denver Center
03:25PM 37.3122 -106.9572 249° West 417 480 34,000  Level Denver Center
03:26PM 37.2714 -107.0881 249° West 420 483 34,000  Level Denver Center
03:27PM 37.2181 -107.2542 248° West 404 465 34,000  Level Denver Center
03:28PM 37.1719 -107.4011 249° West 405 466 34,000  Level Denver Center
03:29PM 37.1306 -107.5278 248° West 408 470 34,000  Level Denver Center
03:30PM 37.0914 -107.6539 249° West 407 468 34,000  Level Denver Center
03:31PM 37.0450 -107.7986 248° West 402 463 34,000  Level Denver Center
03:32PM 37.0047 -107.9214 248° West 401 461 34,000  Level Denver Center
03:33PM 36.9589 -108.0675 249° West 402 463 34,000  Level Denver Center
03:34PM 36.9178 -108.1914 247° West 404 465 34,000  Level Denver Center
03:36PM 36.8772 -108.3153 248° West 404 465 34,000  Level Denver Center
03:37PM 36.8294 -108.4589 247° West 403 464 34,000  Level Denver Center
03:38PM 36.7883 -108.5864 248° West 410 472 34,000  Level Denver Center
03:39PM 36.7394 -108.7333 247° West 413 475 34,100  Climbing Denver Center
03:40PM 36.6972 -108.8597 247° West 413 475 34,100 420 Level Denver Center
03:41PM 36.6481 -109.0056 247° West 412 474 35,000 780 Climbing Denver Center
03:42PM 36.6061 -109.1314 247° West 413 475 35,800 480 Climbing Denver Center
03:43PM 36.5572 -109.2764 247° West 410 472 36,000 60 Climbing Denver Center
03:44PM 36.5144 -109.4008 247° West 411 473 36,000  Level Denver Center
03:45PM 36.4731 -109.5236 247° West 406 467 36,000  Level Denver Center
03:46PM 36.4228 -109.6689 247° West 410 472 36,000  Level Denver Center
03:47PM 36.3808 -109.7936 247° West 410 472 36,000  Level Denver Center
03:48PM 36.3303 -109.9408 247° West 414 476 36,000  Level Denver Center
03:49PM 36.2872 -110.0669 247° West 416 479 36,000  Level Denver Center
03:50PM 36.2389 -110.1978 245° Southwest 406 467 36,000  Level Denver Center
03:51PM 36.1961 -110.3233 247° West 399 459 36,000  Level Denver Center
03:52PM 36.1511 -110.4506 246° West 402 463 36,000  Level Denver Center
03:53PM 36.1064 -110.5778 247° West 402 463 36,000  Level Denver Center
03:54PM 36.0606 -110.7075 246° West 409 471 36,000  Level Denver Center
03:55PM 36.0047 -110.8608 246° West 408 470 36,000  Level Denver Center
03:56PM 35.9597 -110.9908 247° West 411 473 36,100  Climbing Denver Center
03:57PM 35.9128 -111.1200 246° West 412 474 36,000 -60 Descending Denver Center
03:58PM 35.8667 -111.2475 246° West 410 472 36,000  Level Denver Center
03:59PM 35.8289 -111.3544 246° West 416 479 36,000  Level Albuquerque Center
04:00PM 35.7828 -111.4811 246° West 419 482 36,000  Level Albuquerque Center
04:05PM 35.5310 -112.1640 246° West 421 484 36,000  Level FlightAware
04:06PM 35.4970 -112.2540 245° Southwest 421 484 36,000  Level FlightAware
04:06PM 35.4660 -112.3400 246° West 430 495 36,000 60 Level FlightAware
04:07PM 35.4240 -112.4510 245° Southwest 432 497 36,100 60 Climbing FlightAware
04:08PM 35.3910 -112.5400 246° West 430 495 36,100 -120 Level FlightAware
04:09PM 35.3570 -112.6290 245° Southwest 427 491 36,000 -120 Descending FlightAware
04:09PM 35.3190 -112.7290 245° Southwest 426 490 36,000  Level FlightAware
04:10PM 35.2870 -112.8140 245° Southwest 426 490 36,000  Level FlightAware
04:11PM 35.2500 -112.9120 245° Southwest 427 491 36,000  Level FlightAware
04:11PM 35.2160 -113.0010 245° Southwest 427 491 36,000  Level FlightAware
04:12PM 35.1830 -113.0880 245° Southwest 426 490 36,000  Level FlightAware
04:13PM 35.1450 -113.1860 245° Southwest 425 489 36,000  Level FlightAware
04:13PM 35.1120 -113.2720 245° Southwest 425 489 36,000  Level FlightAware
04:14PM 35.0740 -113.3700 245° Southwest 428 493 36,000  Level FlightAware
04:15PM 35.0410 -113.4570 245° Southwest 429 494 36,000  Level FlightAware
04:16PM 35.0010 -113.5580 244° Southwest 429 494 36,000  Level FlightAware
04:16PM 34.9680 -113.6430 245° Southwest 429 494 36,000  Level FlightAware
04:17PM 34.9330 -113.7320 244° Southwest 428 493 36,000  Level FlightAware
04:18PM 34.8960 -113.8280 245° Southwest 428 493 36,000  Level FlightAware
04:18PM 34.8620 -113.9140 244° Southwest 427 491 36,000  Level FlightAware
04:19PM 34.8230 -114.0140 245° Southwest 428 493 36,000  Level FlightAware
04:20PM 34.7960 -114.1040 250° West 421 484 36,000  Level FlightAware
04:20PM 34.7770 -114.1770 252° West 422 486 36,000  Level FlightAware
04:21PM 34.7450 -114.2960 252° West 421 484 36,000  Level FlightAware
04:22PM 34.7220 -114.3830 252° West 421 484 36,000  Level FlightAware
04:23PM 34.6970 -114.4740 252° West 421 484 36,000  Level FlightAware
04:23PM 34.6690 -114.5780 252° West 424 488 36,000  Level FlightAware
04:24PM 34.6450 -114.6680 252° West 425 489 36,000  Level FlightAware
04:25PM 34.6180 -114.7670 252° West 428 493 36,000 60 Level FlightAware
04:25PM 34.5940 -114.8580 252° West 428 493 36,100  Climbing FlightAware
04:26PM 34.5650 -114.9640 252° West 428 493 36,000 -120 Descending FlightAware
04:27PM 34.5410 -115.0490 251° West 428 493 36,000 60 Level FlightAware
04:27PM 34.5140 -115.1470 252° West 426 490 36,100  Climbing FlightAware
04:28PM 34.4870 -115.2470 252° West 424 488 36,000 -120 Descending FlightAware
04:29PM 34.4630 -115.3350 252° West 422 486 36,000  Level FlightAware
04:30PM 34.4340 -115.4370 251° West 421 484 36,000  Level FlightAware
04:30PM 34.4100 -115.5240 252° West 422 486 36,000  Level FlightAware
04:31PM 34.3860 -115.6090 251° West 423 487 36,000 -180 Level FlightAware
04:32PM 34.3510 -115.7130 248° West 435 501 35,800 -780 Descending FlightAware
04:32PM 34.3070 -115.7960 237° Southwest 441 507 34,900 -1,380 Descending FlightAware
04:33PM 34.2550 -115.8940 237° Southwest 448 516 33,900 -1,560 Descending FlightAware
04:34PM 34.2300 -115.9800 251° West 441 507 32,700 -1,920 Descending FlightAware
04:35PM 34.2040 -116.0910 254° West 442 509 31,200 -2,100 Descending FlightAware
04:35PM 34.1820 -116.1820 254° West 435 501 29,800 -2,100 Descending FlightAware
04:36PM 34.1590 -116.2770 254° West 425 489 28,400 -2,100 Descending FlightAware
04:37PM 34.1350 -116.3750 254° West 414 476 26,900 -1,980 Descending FlightAware
04:37PM 34.1140 -116.4610 254° West 399 459 25,600 -2,160 Descending FlightAware
04:38PM 34.0900 -116.5610 254° West 388 447 23,900 -2,160 Descending FlightAware
04:39PM 34.0700 -116.6430 254° West 382 440 22,600 -1,980 Descending FlightAware
04:39PM 34.0480 -116.7310 253° West 375 432 21,100 -2,100 Descending FlightAware
04:40PM 34.0280 -116.8120 253° West 375 432 19,700 -2,160 Descending FlightAware
04:41PM 34.0050 -116.9040 253° West 370 426 18,100 -1,920 Descending FlightAware
04:42PM 33.9870 -116.9800 254° West 356 410 17,000 -840 Descending FlightAware
04:42PM 33.9680 -117.0570 253° West 368 423 17,000 -300 Level FlightAware
04:43PM 33.9510 -117.1450 257° West 375 432 16,600 -960 Descending FlightAware
04:44PM 33.9440 -117.2260 264° West 359 413 15,700 -1,380 Descending FlightAware
04:44PM 33.9380 -117.3060 265° West 353 406 14,800 -1,440 Descending FlightAware
04:45PM 33.9450 -117.4130 275° West 352 405 13,500 -1,380 Descending FlightAware
04:46PM 33.9730 -117.4920 293° West 344 396 12,500 -1,380 Descending FlightAware
04:47PM 33.9990 -117.5640 294° West 349 402 11,600 -1,140 Descending FlightAware
04:47PM 34.0250 -117.6440 291° West 321 369 10,900 -900 Descending FlightAware
04:48PM 34.0200 -117.7120 265° West 291 335 10,400 -960 Descending FlightAware
04:49PM 34.0160 -117.7590 264° West 281 323 9,800 -1,200 Descending FlightAware
04:49PM 34.0120 -117.7970 263° West 276 318 9,300 -1,500 Descending FlightAware
04:49PM 34.0100 -117.8200 264° West 279 321 8,800 -1,620 Descending FlightAware
04:50PM 34.0060 -117.8660 264° West 271 312 8,100 -1,320 Descending FlightAware
04:50PM 34.0020 -117.9010 262° West 265 305 7,600 -1,440 Descending FlightAware
04:51PM 33.9980 -117.9450 264° West 264 304 6,800 -1,680 Descending FlightAware
04:51PM 33.9940 -117.9830 263° West 264 304 6,100 -1,440 Descending FlightAware
04:52PM 33.9900 -118.0270 264° West 257 296 5,500 -1,200 Descending FlightAware
04:52PM 33.9860 -118.0620 262° West 261 300 5,000 -780 Descending FlightAware
04:52PM 33.9820 -118.1020 263° West 235 270 4,800 -540 Descending FlightAware
04:53PM 33.9780 -118.1400 263° West 222 255 4,500 -1,020 Descending FlightAware
04:53PM 33.9750 -118.1720 264° West 219 252 3,900 -1,440 Descending FlightAware
04:54PM 33.9720 -118.2040 264° West 213 245 3,200 -1,140 Descending FlightAware
04:54PM 33.9680 -118.2410 263° West 193 222 2,800 -900 Descending FlightAware
04:55PM 33.9660 -118.2650 264° West 187 215 2,400 -960 Descending FlightAware
04:55PM 33.9640 -118.2830 262° West 177 204 2,100 -660 Descending FlightAware
04:56PM 33.9620 -118.3030 263° West 166 191 1,800 -660 Descending FlightAware
04:56PM 33.9600 -118.3250 264° West 146 168 1,400 -420 Descending FlightAware
04:57PM 33.9570 -118.3460 260° West 145 167 1,400 -900 Level FlightAware
04:57PM 33.9550 -118.3750 265° West 137 158 600 -1,200 Descending FlightAware
04:58PM 33.9530 -118.3940 263° West 132 152 300 -420 Descending FlightAware
04:58PM 33.9510 -118.4170 264° West 134 154 200 -180 Descending FlightAware